Disclaimer

Please do not use the information listed here in-flight or in-navigation, as they are not provided to us by the airports but are provided by volunteers, so they might be outdated.

Search


Regions


Airport information page

Radio informations:
Tower (TWR) - 122.7 MHz

Airport informations:
Latitude: 45° 47' 08.15" N
Longitude: 024° 05' 28.83" E
Elevation: 1496 feet - 456 meters
Operating hours: 24 hour operations
Operating agency: Civil government, landing fees and diplomatic clearance may be required
Timezone: UTC+2(+3DT)
Fuel: N/A

Runway information:
09/27 - 6069 x 98 feet< - >1850 x 30 meters

Recent METARs:
LRSB 201500Z 22006KT 6000 -RA FEW012 SCT033 BKN075 03/01 Q1014 R27/29//95
LRSB 201530Z 18003KT 110V220 8000 -RA FEW033 BKN073 03/02 Q1014 R27/29//95
LRSB 201600Z 24004KT 180V270 7000 -RA FEW033 BKN072 03/02 Q1014 R27/29//95

Airport on the map: